Time,TemperatureF,DewpointF,PressureIn,WindDirection,WindDirectionDegrees,WindSpeedMPH,WindSpeedGustMPH,Humidity,HourlyPrecipIn,Conditions,Clouds,dailyrainin,SoftwareType,DateUTC
2013-05-29 00:08:00,49.7,48.0,29.81,ESE,102,3.0,7.0,94,0.00,,,0.00,weatherlink.com 1.10,2013-05-29 07:08:00,
2013-05-29 00:23:00,49.7,48.0,29.79,NE,54,2.0,8.0,94,0.00,,,0.00,weatherlink.com 1.10,2013-05-29 07:23:00,
2013-05-29 00:38:00,49.7,48.0,29.78,East,82,0.0,5.0,94,0.00,,,0.00,weatherlink.com 1.10,2013-05-29 07:38:00,
2013-05-29 00:53:00,49.7,48.0,29.76,South,173,1.0,6.0,94,0.00,,,0.00,weatherlink.com 1.10,2013-05-29 07:53:00,
2013-05-29 01:09:00,49.7,48.0,29.75,North,355,0.0,1.0,94,0.00,,,0.00,weatherlink.com 1.10,2013-05-29 08:09:00,
2013-05-29 01:24:00,49.7,48.0,29.74,SSE,160,1.0,5.0,94,0.00,,,0.00,weatherlink.com 1.10,2013-05-29 08:24:00,
2013-05-29 01:39:00,49.7,48.0,29.73,ESE,102,0.0,7.0,94,0.00,,,0.00,weatherlink.com 1.10,2013-05-29 08:39:00,
2013-05-29 01:54:00,49.8,49.0,29.71,South,174,0.0,8.0,95,0.00,,,0.00,weatherlink.com 1.10,2013-05-29 08:54:00,
2013-05-29 02:09:00,50.1,49.0,29.71,South,180,0.0,5.0,95,0.00,,,0.00,weatherlink.com 1.10,2013-05-29 09:09:00,
2013-05-29 02:24:00,50.2,49.0,29.70,East,86,0.0,6.0,95,0.00,,,0.00,weatherlink.com 1.10,2013-05-29 09:24:00,
2013-05-29 02:39:00,50.6,49.0,29.70,NW,323,2.0,9.0,95,0.00,,,0.00,weatherlink.com 1.10,2013-05-29 09:39:00,
2013-05-29 02:54:00,51.1,50.0,29.70,NE,38,3.0,8.0,95,0.00,,,0.00,weatherlink.com 1.10,2013-05-29 09:54:00,
2013-05-29 03:09:00,51.4,50.0,29.70,ESE,117,0.0,9.0,95,0.00,,,0.00,weatherlink.com 1.10,2013-05-29 10:09:00,
2013-05-29 03:24:00,51.4,50.0,29.70,ESE,105,2.0,5.0,95,0.00,,,0.00,weatherlink.com 1.10,2013-05-29 10:24:00,
2013-05-29 03:39:00,51.8,51.0,29.70,NE,44,1.0,9.0,95,0.00,,,0.00,weatherlink.com 1.10,2013-05-29 10:39:00,
2013-05-29 03:54:00,52.6,51.0,29.70,West,276,1.0,6.0,95,0.00,,,0.00,weatherlink.com 1.10,2013-05-29 10:54:00,
2013-05-29 04:09:00,53.0,52.0,29.70,WNW,284,3.0,16.0,95,0.00,,,0.00,weatherlink.com 1.10,2013-05-29 11:09:00,
2013-05-29 04:24:00,53.0,52.0,29.70,WSW,252,2.0,11.0,95,0.00,,,0.00,weatherlink.com 1.10,2013-05-29 11:24:00,
2013-05-29 04:39:00,52.9,52.0,29.70,West,268,6.0,10.0,95,0.00,,,0.00,weatherlink.com 1.10,2013-05-29 11:39:00,
2013-05-29 04:54:00,52.8,52.0,29.70,West,277,5.0,14.0,95,0.00,,,0.00,weatherlink.com 1.10,2013-05-29 11:54:00,
2013-05-29 05:09:00,52.8,52.0,29.71,NW,317,5.0,13.0,95,0.00,,,0.00,weatherlink.com 1.10,2013-05-29 12:09:00,
2013-05-29 05:24:00,52.9,52.0,29.72,SW,229,0.0,9.0,95,0.00,,,0.00,weatherlink.com 1.10,2013-05-29 12:24:00,
2013-05-29 05:39:00,52.8,52.0,29.73,WNW,282,7.0,13.0,95,0.00,,,0.00,weatherlink.com 1.10,2013-05-29 12:39:00,
2013-05-29 05:54:00,52.6,51.0,29.75,WSW,253,7.0,13.0,95,0.00,,,0.00,weatherlink.com 1.10,2013-05-29 12:54:00,
2013-05-29 06:09:00,51.9,51.0,29.77,West,267,5.0,17.0,95,0.00,,,0.00,weatherlink.com 1.10,2013-05-29 13:09:00,
2013-05-29 06:24:00,51.3,50.0,29.79,West,265,7.0,13.0,96,0.00,,,0.00,weatherlink.com 1.10,2013-05-29 13:24:00,
2013-05-29 06:39:00,51.0,50.0,29.81,WNW,292,5.0,11.0,96,0.00,,,0.00,weatherlink.com 1.10,2013-05-29 13:39:00,
2013-05-29 06:54:00,51.0,50.0,29.82,WNW,287,4.0,11.0,96,0.00,,,0.00,weatherlink.com 1.10,2013-05-29 13:54:00,
2013-05-29 07:09:00,51.0,50.0,29.84,WNW,288,4.0,12.0,96,0.00,,,0.00,weatherlink.com 1.10,2013-05-29 14:09:00,
2013-05-29 07:24:00,51.0,50.0,29.85,West,281,5.0,11.0,95,0.00,,,0.00,weatherlink.com 1.10,2013-05-29 14:24:00,
2013-05-29 07:39:00,51.0,50.0,29.86,WSW,251,5.0,12.0,96,0.00,,,0.00,weatherlink.com 1.10,2013-05-29 14:39:00,
2013-05-29 07:54:00,51.2,50.0,29.87,West,264,6.0,10.0,96,0.00,,,0.00,weatherlink.com 1.10,2013-05-29 14:54:00,
2013-05-29 08:09:00,51.4,50.0,29.88,WSW,255,3.0,9.0,96,0.00,,,0.00,weatherlink.com 1.10,2013-05-29 15:09:00,
2013-05-29 08:24:00,51.7,51.0,29.88,NW,312,7.0,11.0,96,0.00,,,0.00,weatherlink.com 1.10,2013-05-29 15:24:00,
2013-05-29 08:39:00,52.0,51.0,29.89,West,279,6.0,9.0,96,0.00,,,0.00,weatherlink.com 1.10,2013-05-29 15:39:00,
2013-05-29 08:54:00,52.0,51.0,29.90,West,271,7.0,10.0,96,0.00,,,0.00,weatherlink.com 1.10,2013-05-29 15:54:00,
2013-05-29 09:09:00,51.8,51.0,29.91,WSW,241,7.0,16.0,96,0.00,,,0.00,weatherlink.com 1.10,2013-05-29 16:09:00,
2013-05-29 09:25:00,51.8,51.0,29.92,West,269,8.0,16.0,96,0.00,,,0.00,weatherlink.com 1.10,2013-05-29 16:25:00,
2013-05-29 09:40:00,52.3,51.0,29.93,WSW,241,8.0,17.0,96,0.00,,,0.00,weatherlink.com 1.10,2013-05-29 16:40:00,
2013-05-29 09:55:00,52.0,51.0,29.94,NW,309,7.0,14.0,96,0.00,,,0.00,weatherlink.com 1.10,2013-05-29 16:55:00,
2013-05-29 10:10:00,51.2,50.0,29.95,WSW,253,8.0,19.0,96,0.00,,,0.00,weatherlink.com 1.10,2013-05-29 17:10:00,
2013-05-29 10:25:00,51.2,50.0,29.96,West,269,9.0,19.0,96,0.00,,,0.00,weatherlink.com 1.10,2013-05-29 17:25:00,
2013-05-29 10:40:00,51.3,50.0,29.97,West,267,5.0,16.0,96,0.00,,,0.00,weatherlink.com 1.10,2013-05-29 17:40:00,
2013-05-29 10:55:00,51.4,50.0,29.98,WSW,245,11.0,14.0,96,0.00,,,0.00,weatherlink.com 1.10,2013-05-29 17:55:00,
2013-05-29 11:10:00,51.8,51.0,29.98,West,261,7.0,12.0,95,0.00,,,0.00,weatherlink.com 1.10,2013-05-29 18:10:00,
2013-05-29 11:25:00,52.3,51.0,29.99,West,275,5.0,9.0,94,0.00,,,0.00,weatherlink.com 1.10,2013-05-29 18:25:00,
2013-05-29 11:40:00,53.0,51.0,30.00,West,261,6.0,10.0,93,0.00,,,0.00,weatherlink.com 1.10,2013-05-29 18:40:00,
2013-05-29 11:55:00,53.3,51.0,30.01,West,276,5.0,11.0,91,0.00,,,0.00,weatherlink.com 1.10,2013-05-29 18:55:00,
2013-05-29 12:10:00,54.0,52.0,30.01,WNW,296,5.0,12.0,91,0.00,,,0.00,weatherlink.com 1.10,2013-05-29 19:10:00,
2013-05-29 12:25:00,54.2,52.0,30.02,West,269,9.0,10.0,91,0.00,,,0.00,weatherlink.com 1.10,2013-05-29 19:25:00,
2013-05-29 12:40:00,54.5,52.0,30.03,WNW,289,5.0,8.0,90,0.00,,,0.00,weatherlink.com 1.10,2013-05-29 19:40:00,
2013-05-29 12:55:00,54.4,52.0,30.03,WSW,244,4.0,11.0,90,0.00,,,0.00,weatherlink.com 1.10,2013-05-29 19:55:00,
2013-05-29 13:10:00,54.1,51.0,30.03,West,264,5.0,10.0,89,0.00,,,0.00,weatherlink.com 1.10,2013-05-29 20:10:00,
2013-05-29 13:25:00,54.4,51.0,30.03,WNW,303,8.0,9.0,88,0.00,,,0.00,weatherlink.com 1.10,2013-05-29 20:25:00,
2013-05-29 13:40:00,54.1,50.0,30.04,West,267,5.0,8.0,86,0.00,,,0.00,weatherlink.com 1.10,2013-05-29 20:40:00,
2013-05-29 13:55:00,53.7,50.0,30.04,SSW,207,1.0,9.0,88,0.00,,,0.00,weatherlink.com 1.10,2013-05-29 20:55:00,
2013-05-29 14:10:00,54.8,51.0,30.05,WNW,290,8.0,10.0,88,0.00,,,0.00,weatherlink.com 1.10,2013-05-29 21:10:00,
2013-05-29 14:25:00,55.9,52.0,30.05,West,277,2.0,10.0,86,0.00,,,0.00,weatherlink.com 1.10,2013-05-29 21:25:00,
2013-05-29 14:40:00,56.4,52.0,30.05,West,265,7.0,8.0,85,0.00,,,0.00,weatherlink.com 1.10,2013-05-29 21:40:00,
2013-05-29 14:55:00,54.3,51.0,30.05,NW,322,3.0,7.0,89,0.00,,,0.00,weatherlink.com 1.10,2013-05-29 21:55:00,
2013-05-29 15:10:00,53.1,51.0,30.06,West,277,5.0,6.0,91,0.00,,,0.00,weatherlink.com 1.10,2013-05-29 22:10:00,
2013-05-29 15:25:00,53.4,52.0,30.06,WNW,290,3.0,8.0,93,0.00,,,0.00,weatherlink.com 1.10,2013-05-29 22:25:00,
2013-05-29 15:40:00,53.1,51.0,30.07,WNW,294,5.0,15.0,92,0.00,,,0.00,weatherlink.com 1.10,2013-05-29 22:40:00,
2013-05-29 15:55:00,52.4,51.0,30.07,WSW,257,6.0,10.0,93,0.00,,,0.00,weatherlink.com 1.10,2013-05-29 22:55:00,
2013-05-29 16:10:00,52.3,51.0,30.07,West,265,4.0,8.0,94,0.00,,,0.00,weatherlink.com 1.10,2013-05-29 23:10:00,
2013-05-29 16:25:00,51.7,50.0,30.07,West,267,5.0,10.0,94,0.00,,,0.00,weatherlink.com 1.10,2013-05-29 23:25:00,
2013-05-29 16:40:00,51.9,51.0,30.07,WSW,250,8.0,10.0,95,0.00,,,0.00,weatherlink.com 1.10,2013-05-29 23:40:00,
2013-05-29 16:55:00,51.7,50.0,30.08,WNW,286,7.0,8.0,95,0.00,,,0.00,weatherlink.com 1.10,2013-05-29 23:55:00,
2013-05-29 17:10:00,51.2,50.0,30.08,WNW,292,4.0,10.0,95,0.00,,,0.00,weatherlink.com 1.10,2013-05-30 00:10:00,
2013-05-29 17:25:00,51.6,50.0,30.09,West,265,3.0,6.0,95,0.00,,,0.00,weatherlink.com 1.10,2013-05-30 00:25:00,
2013-05-29 17:41:00,51.5,50.0,30.09,WSW,252,5.0,7.0,95,0.00,,,0.00,weatherlink.com 1.10,2013-05-30 00:41:00,
2013-05-29 17:56:00,51.7,50.0,30.09,WSW,254,8.0,9.0,94,0.00,,,0.00,weatherlink.com 1.10,2013-05-30 00:56:00,
2013-05-29 18:11:00,51.6,50.0,30.10,West,276,5.0,11.0,93,0.00,,,0.00,weatherlink.com 1.10,2013-05-30 01:11:00,
2013-05-29 18:26:00,51.6,49.0,30.10,WNW,300,5.0,11.0,92,0.00,,,0.00,weatherlink.com 1.10,2013-05-30 01:26:00,
2013-05-29 18:41:00,51.6,49.0,30.11,West,266,4.0,10.0,90,0.00,,,0.00,weatherlink.com 1.10,2013-05-30 01:41:00,
2013-05-29 18:55:00,52.2,49.0,30.11,WNW,298,5.0,9.0,90,0.00,,,0.00,weatherlink.com 1.10,2013-05-30 01:55:00,
2013-05-29 19:11:00,52.3,49.0,30.11,West,277,3.0,9.0,87,0.00,,,0.00,weatherlink.com 1.10,2013-05-30 02:11:00,
2013-05-29 19:26:00,51.8,48.0,30.11,West,271,4.0,11.0,88,0.00,,,0.00,weatherlink.com 1.10,2013-05-30 02:26:00,
2013-05-29 19:41:00,51.4,49.0,30.12,SE,137,0.0,3.0,90,0.00,,,0.00,weatherlink.com 1.10,2013-05-30 02:41:00,
2013-05-29 19:56:00,51.0,49.0,30.12,East,100,0.0,2.0,91,0.00,,,0.00,weatherlink.com 1.10,2013-05-30 02:56:00,
2013-05-29 20:11:00,50.6,48.0,30.13,ESE,113,0.0,2.0,92,0.00,,,0.00,weatherlink.com 1.10,2013-05-30 03:11:00,
2013-05-29 20:26:00,50.3,48.0,30.13,SE,128,2.0,2.0,93,0.00,,,0.00,weatherlink.com 1.10,2013-05-30 03:26:00,
2013-05-29 20:41:00,50.1,48.0,30.13,West,281,0.0,4.0,93,0.00,,,0.00,weatherlink.com 1.10,2013-05-30 03:41:00,
2013-05-29 20:56:00,49.8,48.0,30.13,West,281,0.0,0.0,93,0.00,,,0.00,weatherlink.com 1.10,2013-05-30 03:56:00,
2013-05-29 21:11:00,49.7,48.0,30.13,West,281,0.0,2.0,94,0.00,,,0.00,weatherlink.com 1.10,2013-05-30 04:11:00,
2013-05-29 21:26:00,50.0,48.0,30.13,WSW,250,5.0,9.0,94,0.00,,,0.00,weatherlink.com 1.10,2013-05-30 04:26:00,
2013-05-29 21:41:00,49.7,48.0,30.14,West,268,2.0,6.0,92,0.00,,,0.00,weatherlink.com 1.10,2013-05-30 04:41:00,
2013-05-29 21:56:00,49.4,47.0,30.14,West,271,0.0,4.0,92,0.00,,,0.00,weatherlink.com 1.10,2013-05-30 04:56:00,
2013-05-29 22:11:00,49.2,47.0,30.15,West,271,0.0,1.0,93,0.00,,,0.00,weatherlink.com 1.10,2013-05-30 05:11:00,
2013-05-29 22:26:00,49.0,47.0,30.15,West,271,0.0,0.0,93,0.00,,,0.00,weatherlink.com 1.10,2013-05-30 05:26:00,
2013-05-29 22:41:00,48.9,47.0,30.16,West,271,0.0,1.0,94,0.00,,,0.00,weatherlink.com 1.10,2013-05-30 05:41:00,
2013-05-29 22:56:00,48.8,47.0,30.17,West,271,0.0,0.0,94,0.00,,,0.00,weatherlink.com 1.10,2013-05-30 05:56:00,
2013-05-29 23:11:00,48.7,47.0,30.17,West,271,0.0,1.0,94,0.00,,,0.00,weatherlink.com 1.10,2013-05-30 06:11:00,
2013-05-29 23:26:00,48.7,47.0,30.17,WNW,286,0.0,1.0,94,0.00,,,0.00,weatherlink.com 1.10,2013-05-30 06:26:00,
2013-05-29 23:41:00,48.6,47.0,30.17,WNW,286,0.0,0.0,95,0.00,,,0.00,weatherlink.com 1.10,2013-05-30 06:41:00,
2013-05-29 23:56:00,48.6,47.0,30.17,WNW,286,0.0,0.0,95,0.00,,,0.00,weatherlink.com 1.10,2013-05-30 06:56:00,